Time;durP1;ratioP1;P1;durP2;ratioP2;P2;SDS_P1;SDS_P2;PMS_P1;PMS_P2;Temp;Humidity;BMP_temperature;BMP_pressure;BME280_temperature;BME280_humidity;BME280_pressure;Samples;Min_cycle;Max_cycle;Signal;HPM_P1;HPM_P2
2021/04/27 00:02:18;;;;;;;5.17;2.90;;;;;;;9.79;30.84;95961.31;5031521;28;20278;-70
2021/04/27 00:04:44;;;;;;;3.63;2.90;;;;;;;9.83;30.84;95959.97;5031275;28;21048;-69
2021/04/27 00:07:09;;;;;;;4.60;2.93;;;;;;;9.75;30.35;95965.28;5042289;28;20536;-69
2021/04/27 00:09:35;;;;;;;5.90;2.90;;;;;;;9.62;31.22;95950.19;5031318;28;20461;-68
2021/04/27 00:12:01;;;;;;;4.60;3.33;;;;;;;9.56;31.38;95943.06;5031777;28;20180;-69
2021/04/27 00:14:27;;;;;;;5.90;3.50;;;;;;;9.52;31.79;95949.59;5031577;28;20179;-69
2021/04/27 00:16:53;;;;;;;3.90;2.87;;;;;;;9.52;30.99;95947.78;5031405;28;20513;-68
2021/04/27 00:19:19;;;;;;;6.27;3.10;;;;;;;9.33;31.32;95945.69;5031280;28;20646;-68
2021/04/27 00:21:44;;;;;;;4.97;2.63;;;;;;;9.47;31.51;95947.53;5034115;28;20815;-69
2021/04/27 00:24:10;;;;;;;3.43;2.93;;;;;;;9.56;30.77;95937.81;5034959;28;20191;-69
2021/04/27 00:26:36;;;;;;;4.10;2.80;;;;;;;9.56;31.13;95939.59;5035757;28;20184;-69
2021/04/27 00:29:03;;;;;;;3.30;3.00;;;;;;;9.47;31.69;95934.44;5035131;28;20223;-69
2021/04/27 00:31:29;;;;;;;6.13;3.10;;;;;;;9.25;31.87;95930.84;5029488;28;20454;-69
2021/04/27 00:33:56;;;;;;;3.80;3.00;;;;;;;9.42;31.83;95926.31;5033619;28;20430;-69
2021/04/27 00:36:22;;;;;;;4.83;3.00;;;;;;;9.29;31.85;95926.91;5037316;28;20426;-70
2021/04/27 00:38:48;;;;;;;5.67;3.20;;;;;;;9.32;32.00;95926.56;5053006;28;20867;-69
2021/04/27 00:41:13;;;;;;;3.57;2.90;;;;;;;9.47;32.14;95925.78;5036842;28;20261;-67
2021/04/27 00:43:39;;;;;;;5.33;3.60;;;;;;;9.45;31.78;95922.56;5038681;28;21096;-69
2021/04/27 00:46:04;;;;;;;6.07;3.00;;;;;;;9.52;32.11;95929.50;5020073;28;20540;-68
2021/04/27 00:48:30;;;;;;;5.90;3.40;;;;;;;9.52;31.56;95923.47;5035807;28;20211;-69
2021/04/27 00:50:56;;;;;;;5.90;3.10;;;;;;;9.30;32.41;95915.47;5035135;28;20314;-69
2021/04/27 00:53:22;;;;;;;6.63;3.03;;;;;;;9.35;32.74;95918.34;5038867;28;20219;-68
2021/04/27 00:55:47;;;;;;;7.80;3.10;;;;;;;9.37;32.61;95912.97;5035832;28;20183;-69
2021/04/27 00:58:13;;;;;;;5.20;2.83;;;;;;;9.28;32.47;95912.22;5038612;28;20982;-69
2021/04/27 01:00:40;;;;;;;3.03;2.73;;;;;;;9.34;32.74;95916.72;5057508;28;20195;-69
2021/04/27 01:03:07;;;;;;;5.23;2.80;;;;;;;9.40;32.55;95903.94;5038092;28;20557;-69
2021/04/27 01:05:34;;;;;;;2.87;2.63;;;;;;;9.33;32.31;95906.47;5036303;28;20415;-67
2021/04/27 01:08:11;;;;;;;4.90;3.20;;;;;;;9.25;32.27;95904.72;5026973;28;20422;-70
2021/04/27 01:10:56;;;;;;;2.90;2.63;;;;;;;9.11;32.91;95908.09;5033596;28;20469;-68
2021/04/27 01:13:37;;;;;;;3.23;2.93;;;;;;;9.11;32.92;95908.09;5050122;28;20445;-69
2021/04/27 01:16:04;;;;;;;13.43;3.07;;;;;;;9.08;33.33;95906.66;5031750;28;20426;-68
2021/04/27 01:18:32;;;;;;;3.23;2.93;;;;;;;8.93;33.35;95903.16;5050129;28;21136;-69
2021/04/27 01:21:00;;;;;;;5.70;3.20;;;;;;;8.89;33.42;95893.03;5032646;28;20419;-68
2021/04/27 01:23:58;;;;;;;5.33;3.30;;;;;;;8.79;33.39;95904.72;5032913;28;20445;-70
2021/04/27 01:26:39;;;;;;;4.20;3.20;;;;;;;8.74;34.17;95900.81;5029119;28;20422;-69
2021/04/27 01:29:06;;;;;;;3.30;3.00;;;;;;;8.84;33.64;95894.56;5034374;28;20442;-69
2021/04/27 01:31:33;;;;;;;4.43;3.17;;;;;;;8.84;33.85;95899.78;5033060;28;20512;-68
2021/04/27 01:33:59;;;;;;;4.63;2.83;;;;;;;8.80;33.49;95894.09;5033173;28;20428;-69
2021/04/27 01:36:25;;;;;;;11.17;3.03;;;;;;;8.80;33.29;95890.69;5032723;28;20427;-69
2021/04/27 01:38:51;;;;;;;4.30;2.77;;;;;;;8.67;33.62;95888.63;5033939;28;20485;-68
2021/04/27 01:41:17;;;;;;;5.10;3.13;;;;;;;8.70;34.05;95883.84;5048788;28;20795;-69
2021/04/27 01:43:45;;;;;;;5.13;3.60;;;;;;;8.64;34.15;95883.72;5033960;28;20434;-69
2021/04/27 01:46:11;;;;;;;6.03;3.83;;;;;;;8.62;34.54;95891.75;5032643;28;20867;-69
2021/04/27 01:48:37;;;;;;;8.03;3.90;;;;;;;8.63;34.00;95884.75;5032559;28;20534;-68
2021/04/27 01:51:10;;;;;;;3.60;3.30;;;;;;;8.64;34.45;95876.72;5032138;28;20542;-69
2021/04/27 01:53:40;;;;;;;10.87;3.67;;;;;;;8.65;34.54;95886.19;5034306;28;20460;-71
2021/04/27 01:56:06;;;;;;;4.77;3.73;;;;;;;8.57;34.40;95883.59;5034331;28;20422;-69
2021/04/27 01:58:33;;;;;;;3.63;3.23;;;;;;;8.48;34.86;95882.03;5034579;28;20450;-68
2021/04/27 02:00:59;;;;;;;7.77;3.30;;;;;;;8.46;34.42;95872.53;5032474;28;20933;-68
2021/04/27 02:03:26;;;;;;;4.60;2.77;;;;;;;8.36;35.06;95869.34;5027353;28;20430;-69
2021/04/27 02:05:51;;;;;;;5.37;3.23;;;;;;;8.42;34.91;95873.88;5035759;28;20806;-68
2021/04/27 02:08:17;;;;;;;4.57;2.70;;;;;;;8.41;34.97;95879.25;5034203;28;20442;-69
2021/04/27 02:10:43;;;;;;;4.57;3.13;;;;;;;8.35;34.60;95870.31;5033449;28;20203;-70
2021/04/27 02:13:12;;;;;;;5.73;3.37;;;;;;;8.26;35.21;95871.34;5048798;28;20191;-69
2021/04/27 02:15:39;;;;;;;6.63;3.43;;;;;;;8.27;35.70;95867.75;5043416;28;20179;-69
2021/04/27 02:18:27;;;;;;;4.47;3.20;;;;;;;8.12;35.55;95858.03;5032612;28;20823;-69
2021/04/27 02:20:53;;;;;;;8.03;3.67;;;;;;;8.05;35.72;95869.31;5031688;28;20480;-69
2021/04/27 02:23:19;;;;;;;5.57;3.40;;;;;;;8.25;35.70;95864.50;5032888;28;20533;-69
2021/04/27 02:25:45;;;;;;;3.90;3.20;;;;;;;8.27;35.28;95863.34;5032170;28;20433;-70
2021/04/27 02:28:11;;;;;;;5.30;3.77;;;;;;;8.05;35.90;95859.69;5048781;28;20426;-69
2021/04/27 02:30:37;;;;;;;4.67;3.77;;;;;;;8.19;35.68;95857.38;5030849;28;20453;-68
2021/04/27 02:33:03;;;;;;;7.53;3.60;;;;;;;8.12;35.84;95860.63;5043753;28;20709;-67
2021/04/27 02:35:29;;;;;;;6.10;3.70;;;;;;;8.08;36.33;95854.13;5033116;28;20451;-70
2021/04/27 02:37:55;;;;;;;4.63;3.33;;;;;;;8.01;36.29;95853.19;5032902;28;20187;-68
2021/04/27 02:40:24;;;;;;;4.40;3.27;;;;;;;7.96;36.37;95856.31;5032746;28;20438;-67
2021/04/27 02:42:56;;;;;;;5.73;3.30;;;;;;;7.85;37.02;95843.63;5038455;28;20610;-68
2021/04/27 02:45:30;;;;;;;7.60;3.20;;;;;;;7.98;36.50;95848.28;5033190;28;20771;-68
2021/04/27 02:48:10;;;;;;;5.70;3.47;;;;;;;7.95;36.37;95846.03;5032761;28;20986;-68
2021/04/27 02:50:37;;;;;;;3.70;3.27;;;;;;;7.88;36.87;95838.06;5032071;28;20540;-69
2021/04/27 02:53:03;;;;;;;4.23;3.00;;;;;;;7.93;36.43;95840.97;5032417;28;20430;-69
2021/04/27 02:55:28;;;;;;;5.73;3.80;;;;;;;7.92;36.46;95839.34;5032418;28;20854;-68
2021/04/27 02:57:54;;;;;;;4.50;3.47;;;;;;;7.82;36.62;95829.09;5032938;28;20187;-67
2021/04/27 03:00:20;;;;;;;6.20;3.70;;;;;;;7.79;37.09;95837.28;5050292;28;20195;-69
2021/04/27 03:02:45;;;;;;;8.80;3.80;;;;;;;7.89;37.17;95824.03;5032206;28;20212;-68
2021/04/27 03:05:12;;;;;;;4.23;3.20;;;;;;;7.99;36.76;95829.88;5034319;28;20183;-68
2021/04/27 03:07:38;;;;;;;4.73;3.60;;;;;;;8.03;36.52;95825.13;5030895;28;20619;-67
2021/04/27 03:10:04;;;;;;;4.13;3.20;;;;;;;7.95;36.52;95825.97;5031693;28;20482;-68
2021/04/27 03:12:29;;;;;;;4.90;3.40;;;;;;;7.94;36.79;95824.34;5032141;28;20190;-67
2021/04/27 03:14:55;;;;;;;6.93;3.63;;;;;;;7.86;36.94;95826.16;5031886;28;20494;-67
2021/04/27 03:17:21;;;;;;;5.30;3.90;;;;;;;7.81;37.25;95832.69;5030798;28;20253;-68
2021/04/27 03:19:46;;;;;;;7.53;3.50;;;;;;;7.87;37.23;95833.84;5032096;28;20282;-68
2021/04/27 03:22:12;;;;;;;6.00;3.87;;;;;;;7.80;36.84;95836.31;5031989;28;20206;-68
2021/04/27 03:24:37;;;;;;;5.80;3.70;;;;;;;7.86;37.20;95823.56;5031457;28;20202;-68
2021/04/27 03:27:03;;;;;;;7.60;3.70;;;;;;;7.56;37.72;95834.56;5032604;28;20580;-68
2021/04/27 03:29:29;;;;;;;4.90;3.57;;;;;;;7.79;37.65;95834.69;5031916;28;20200;-68
2021/04/27 03:31:54;;;;;;;3.57;3.10;;;;;;;7.86;37.09;95832.22;5031516;28;20437;-68
2021/04/27 03:34:20;;;;;;;4.70;2.80;;;;;;;7.87;37.38;95825.19;5032055;28;20454;-71
2021/04/27 03:36:45;;;;;;;4.87;3.23;;;;;;;7.85;37.22;95830.59;5031786;28;20190;-68
2021/04/27 03:39:11;;;;;;;3.43;3.13;;;;;;;7.94;36.90;95831.38;5031635;28;20270;-68
2021/04/27 03:41:37;;;;;;;5.50;3.40;;;;;;;7.85;37.09;95833.19;5030355;28;20225;-67
2021/04/27 03:44:03;;;;;;;3.60;3.30;;;;;;;7.86;37.37;95832.22;5031627;28;20198;-67
2021/04/27 03:46:29;;;;;;;6.03;3.17;;;;;;;7.82;37.23;95825.69;5031878;28;20188;-68
2021/04/27 03:48:59;;;;;;;7.63;3.20;;;;;;;7.79;37.49;95834.69;5032018;28;20442;-68
2021/04/27 03:51:24;;;;;;;11.53;4.60;;;;;;;7.84;37.21;95831.56;5025149;28;20195;-67
2021/04/27 03:53:50;;;;;;;4.90;3.63;;;;;;;7.85;37.13;95830.59;5031779;28;20426;-68
2021/04/27 03:56:16;;;;;;;5.27;4.07;;;;;;;7.86;36.88;95828.78;5031399;28;20242;-69
2021/04/27 03:58:41;;;;;;;3.97;3.30;;;;;;;7.71;37.25;95832.09;5030446;28;20685;-67
2021/04/27 04:01:08;;;;;;;7.73;3.07;;;;;;;7.79;37.18;95824.25;5031719;28;20175;-69
2021/04/27 04:03:37;;;;;;;4.60;3.60;;;;;;;7.82;37.01;95830.91;5035173;28;20179;-69
2021/04/27 04:06:03;;;;;;;4.30;3.37;;;;;;;7.76;37.10;95827.19;5032270;28;20442;-69
2021/04/27 04:08:28;;;;;;;5.87;3.50;;;;;;;7.75;37.13;95830.78;5031893;28;20533;-69
2021/04/27 04:10:54;;;;;;;4.57;3.00;;;;;;;7.74;37.62;95834.38;5031310;28;20637;-68
2021/04/27 04:13:19;;;;;;;7.47;3.30;;;;;;;7.71;37.39;95826.06;5038456;28;20714;-68
2021/04/27 04:15:45;;;;;;;4.37;3.27;;;;;;;7.69;37.65;95834.88;5031035;28;20184;-69
2021/04/27 04:18:10;;;;;;;5.63;3.33;;;;;;;7.70;37.37;95830.44;5031616;28;20258;-68
2021/04/27 04:20:36;;;;;;;4.53;3.33;;;;;;;7.67;37.55;95831.59;5030859;28;20652;-68
2021/04/27 04:23:02;;;;;;;3.10;2.80;;;;;;;7.68;37.92;95835.84;5031720;28;20192;-66
2021/04/27 04:25:27;;;;;;;4.27;3.27;;;;;;;7.70;38.04;95827.84;5031899;28;20301;-67
2021/04/27 04:27:54;;;;;;;4.17;3.33;;;;;;;7.67;37.71;95833.41;5034182;28;20184;-69
2021/04/27 04:30:22;;;;;;;5.27;3.60;;;;;;;7.41;38.34;95831.84;5033836;28;20832;-69
2021/04/27 04:32:48;;;;;;;5.70;3.70;;;;;;;7.53;38.31;95838.34;5034980;28;20432;-68
2021/04/27 04:35:15;;;;;;;6.87;3.90;;;;;;;7.57;37.82;95832.78;5035332;28;20920;-68
2021/04/27 04:37:40;;;;;;;5.27;3.67;;;;;;;7.55;38.15;95845.19;5034169;28;20418;-69
2021/04/27 04:40:08;;;;;;;4.17;3.37;;;;;;;7.63;37.74;95835.53;5033940;28;20588;-68
2021/04/27 04:42:33;;;;;;;10.03;3.23;;;;;;;7.62;38.85;95833.94;5032766;28;20271;-68
2021/04/27 04:44:59;;;;;;;7.77;3.70;;;;;;;7.64;38.17;95836.34;5024257;28;20445;-67
2021/04/27 04:47:25;;;;;;;3.80;3.30;;;;;;;7.62;37.99;95828.72;5035981;28;20192;-69
2021/04/27 04:49:51;;;;;;;4.90;3.37;;;;;;;7.59;38.36;95831.66;5032391;28;20222;-68
2021/04/27 04:52:16;;;;;;;3.80;3.20;;;;;;;7.62;38.54;95840.91;5035833;28;20243;-68
2021/04/27 04:54:42;;;;;;;4.83;3.63;;;;;;;7.56;38.32;95834.56;5030951;28;20180;-69
2021/04/27 04:57:07;;;;;;;10.07;3.63;;;;;;;7.43;38.58;95837.72;5031406;28;20179;-68
2021/04/27 04:59:33;;;;;;;5.60;3.50;;;;;;;7.44;39.08;95836.72;5031241;28;20196;-68
2021/04/27 05:01:59;;;;;;;6.47;3.80;;;;;;;7.59;38.68;95838.63;5030553;28;20222;-69
2021/04/27 05:04:24;;;;;;;5.83;3.90;;;;;;;7.70;38.84;95833.06;5029912;28;20176;-69
2021/04/27 05:06:51;;;;;;;5.00;3.83;;;;;;;7.74;38.49;95842.19;5035301;28;20211;-69
2021/04/27 05:09:17;;;;;;;6.93;3.53;;;;;;;7.64;39.15;95844.19;5035094;28;20253;-68
2021/04/27 05:11:43;;;;;;;5.37;3.83;;;;;;;7.74;38.70;95844.00;5034238;28;20940;-69
2021/04/27 05:14:09;;;;;;;10.23;4.10;;;;;;;7.83;38.46;95843.78;5040670;28;20530;-69
2021/04/27 05:16:34;;;;;;;6.33;4.10;;;;;;;7.73;38.83;95843.16;5037900;28;20433;-68
2021/04/27 05:19:01;;;;;;;4.53;4.10;;;;;;;7.89;38.47;95838.88;5034672;28;20273;-68
2021/04/27 05:21:27;;;;;;;5.77;3.87;;;;;;;8.02;38.62;95839.16;5041543;28;20196;-69
2021/04/27 05:23:53;;;;;;;8.33;4.27;;;;;;;8.01;38.43;95847.97;5036342;28;20580;-67
2021/04/27 05:26:18;;;;;;;4.60;3.70;;;;;;;7.89;38.83;95844.09;5037732;28;20203;-69
2021/04/27 05:28:44;;;;;;;5.73;4.13;;;;;;;7.78;39.29;95845.25;5036778;28;20592;-68
2021/04/27 05:31:10;;;;;;;7.40;4.67;;;;;;;8.09;38.73;95845.31;5033722;28;20212;-68
2021/04/27 05:33:35;;;;;;;5.47;3.50;;;;;;;8.07;38.56;95847.28;5033463;28;20192;-69
2021/04/27 05:36:02;;;;;;;6.60;4.23;;;;;;;8.02;38.22;95849.59;5034943;28;20207;-68
2021/04/27 05:38:28;;;;;;;10.97;4.40;;;;;;;7.97;38.78;95842.28;5036223;28;20211;-68
2021/04/27 05:40:54;;;;;;;7.10;4.53;;;;;;;8.05;39.15;95838.81;5020393;28;20426;-68
2021/04/27 05:43:19;;;;;;;6.30;4.50;;;;;;;8.18;38.40;95840.88;5038668;28;20602;-70
2021/04/27 05:45:45;;;;;;;9.97;3.93;;;;;;;8.27;38.42;95852.09;5038549;28;20251;-68
2021/04/27 05:48:11;;;;;;;10.70;4.07;;;;;;;8.44;37.69;95842.38;5035420;28;20262;-68
2021/04/27 05:50:38;;;;;;;5.83;4.53;;;;;;;8.43;38.37;95840.75;5032496;28;20301;-69
2021/04/27 05:53:04;;;;;;;7.03;4.60;;;;;;;8.41;38.00;95834.88;5034491;28;20419;-69
2021/04/27 05:55:29;;;;;;;5.83;3.93;;;;;;;8.49;38.33;95832.28;5034664;28;21162;-68
2021/04/27 05:57:55;;;;;;;9.67;4.20;;;;;;;8.08;38.88;95833.25;5033167;28;20231;-69
2021/04/27 06:00:21;;;;;;;9.47;5.27;;;;;;;8.22;39.09;95828.28;5032073;28;20199;-69
2021/04/27 06:02:47;;;;;;;6.93;4.30;;;;;;;8.66;37.74;95826.91;5034297;28;20427;-68
2021/04/27 06:05:13;;;;;;;8.17;4.90;;;;;;;8.22;38.70;95834.34;5034811;28;20229;-69
2021/04/27 06:07:38;;;;;;;7.70;4.60;;;;;;;8.64;38.07;95834.94;5034103;28;20187;-69
2021/04/27 06:10:05;;;;;;;7.60;4.93;;;;;;;8.83;37.45;95835.44;5036775;28;20199;-68
2021/04/27 06:12:31;;;;;;;5.47;4.70;;;;;;;8.78;37.20;95827.34;5033664;28;20995;-68
2021/04/27 06:14:57;;;;;;;6.47;4.20;;;;;;;9.35;36.18;95834.69;5033341;28;20426;-68
2021/04/27 06:17:23;;;;;;;17.87;4.93;;;;;;;9.83;35.95;95829.13;5033495;28;20937;-69
2021/04/27 06:19:48;;;;;;;9.60;4.57;;;;;;;10.00;35.73;95826.34;5032787;28;20200;-69
2021/04/27 06:22:14;;;;;;;6.63;3.90;;;;;;;9.43;36.48;95825.97;5033224;28;20195;-69
2021/04/27 06:24:39;;;;;;;10.50;4.90;;;;;;;10.05;35.27;95821.34;5033245;28;20197;-69
2021/04/27 06:27:05;;;;;;;6.57;4.00;;;;;;;10.17;35.44;95816.47;5033505;28;20310;-68
2021/04/27 06:29:31;;;;;;;11.83;4.50;;;;;;;10.16;34.87;95825.31;5031569;28;20199;-68
2021/04/27 06:31:56;;;;;;;7.53;5.03;;;;;;;10.35;35.62;95823.09;5033618;28;20646;-68
2021/04/27 06:34:22;;;;;;;15.30;4.90;;;;;;;10.76;34.76;95819.91;5033701;28;20184;-68
2021/04/27 06:36:48;;;;;;;5.67;4.23;;;;;;;10.78;34.76;95817.09;5033058;28;20194;-69
2021/04/27 06:39:13;;;;;;;8.87;5.23;;;;;;;11.18;34.10;95820.06;5033251;28;20204;-69
2021/04/27 06:41:39;;;;;;;6.10;4.50;;;;;;;11.34;33.60;95816.38;5032491;28;20422;-69
2021/04/27 06:44:06;;;;;;;10.30;4.63;;;;;;;11.23;33.43;95817.69;5033200;28;20593;-69
2021/04/27 06:46:32;;;;;;;6.37;4.70;;;;;;;11.08;33.73;95815.19;5033010;28;20201;-68
2021/04/27 06:48:58;;;;;;;8.47;4.60;;;;;;;10.68;34.55;95817.44;5031640;28;20447;-67
2021/04/27 06:51:24;;;;;;;7.30;4.57;;;;;;;10.50;34.55;95829.13;5032933;28;20457;-68
2021/04/27 06:53:50;;;;;;;10.67;5.00;;;;;;;11.14;33.41;95822.28;5033008;28;20422;-69
2021/04/27 06:56:16;;;;;;;8.43;4.30;;;;;;;10.89;34.50;95820.03;5039918;28;20180;-68
2021/04/27 06:58:42;;;;;;;7.80;4.47;;;;;;;10.64;33.82;95822.25;5030329;28;20471;-68
2021/04/27 07:01:08;;;;;;;8.70;5.13;;;;;;;9.96;35.49;95819.84;5034167;28;20421;-68
2021/04/27 07:03:34;;;;;;;11.63;4.87;;;;;;;10.09;35.88;95827.03;5032447;28;20494;-69
2021/04/27 07:06:00;;;;;;;7.30;4.93;;;;;;;9.90;35.57;95821.38;5048954;28;20184;-68
2021/04/27 07:08:25;;;;;;;8.27;5.00;;;;;;;10.22;35.67;95826.38;5033136;28;20446;-68
2021/04/27 07:10:53;;;;;;;7.53;4.83;;;;;;;10.74;34.70;95817.50;5033486;28;20449;-67
2021/04/27 07:13:19;;;;;;;7.30;4.97;;;;;;;11.46;33.21;95808.78;5033878;28;20180;-68
2021/04/27 07:15:45;;;;;;;14.07;5.60;;;;;;;11.42;33.36;95813.59;5031490;28;20506;-68
2021/04/27 07:18:11;;;;;;;9.40;5.40;;;;;;;10.68;33.82;95818.22;5032503;28;20458;-67
2021/04/27 07:20:37;;;;;;;9.27;5.33;;;;;;;11.17;33.72;95811.41;5032420;28;20574;-66
2021/04/27 07:23:02;;;;;;;9.90;5.70;;;;;;;11.64;32.88;95813.53;5033293;28;20447;-66
2021/04/27 07:25:28;;;;;;;11.50;5.17;;;;;;;12.07;32.14;95813.38;5031351;28;20183;-67
2021/04/27 07:27:54;;;;;;;7.00;5.40;;;;;;;12.26;32.13;95813.66;5047604;28;20195;-66
2021/04/27 07:30:21;;;;;;;12.60;5.70;;;;;;;12.14;32.46;95816.84;5031276;28;20218;-67
2021/04/27 07:32:47;;;;;;;6.63;5.30;;;;;;;12.36;32.21;95821.97;5031691;28;20532;-67
2021/04/27 07:35:13;;;;;;;8.57;5.07;;;;;;;13.01;31.10;95821.47;5047847;28;20497;-66
2021/04/27 07:37:39;;;;;;;8.57;5.80;;;;;;;12.56;31.36;95819.38;5032128;28;20904;-67
2021/04/27 07:40:06;;;;;;;11.33;5.57;;;;;;;13.15;30.44;95810.97;5031204;28;20435;-69
2021/04/27 07:42:32;;;;;;;6.83;5.20;;;;;;;12.88;30.93;95813.59;5031600;28;20259;-68
2021/04/27 07:44:57;;;;;;;11.90;5.23;;;;;;;12.99;30.78;95817.44;5030251;28;20513;-68
2021/04/27 07:47:23;;;;;;;11.40;5.80;;;;;;;11.84;32.52;95822.31;5032512;28;20180;-69
2021/04/27 07:49:49;;;;;;;12.47;6.10;;;;;;;12.14;32.17;95814.22;5031880;28;20206;-68
2021/04/27 07:52:14;;;;;;;8.87;5.70;;;;;;;13.13;30.75;95808.56;5032474;28;20568;-67
2021/04/27 07:54:40;;;;;;;12.37;5.53;;;;;;;12.51;31.87;95821.00;5033706;28;20617;-68
2021/04/27 07:57:06;;;;;;;14.00;5.60;;;;;;;13.30;30.65;95819.47;5032184;28;20179;-66
2021/04/27 07:59:31;;;;;;;14.77;6.43;;;;;;;13.55;30.11;95815.41;5039177;28;20281;-68
2021/04/27 08:02:00;;;;;;;9.13;6.70;;;;;;;13.03;31.02;95816.03;5041138;28;20180;-67
2021/04/27 08:04:26;;;;;;;14.17;6.23;;;;;;;13.07;30.90;95819.88;5032210;28;20211;-68
2021/04/27 08:06:51;;;;;;;9.93;5.83;;;;;;;13.83;29.84;95815.97;5032537;28;20786;-68
2021/04/27 08:09:17;;;;;;;10.47;6.07;;;;;;;13.64;29.98;95808.94;5034972;28;20630;-68
2021/04/27 08:11:43;;;;;;;7.70;5.83;;;;;;;12.93;31.32;95819.06;5030676;28;20275;-67
2021/04/27 08:14:09;;;;;;;18.80;6.03;;;;;;;13.74;30.13;95814.56;5047664;28;20180;-68
2021/04/27 08:16:35;;;;;;;13.77;7.07;;;;;;;14.15;29.43;95815.25;5032325;28;20319;-66
2021/04/27 08:19:02;;;;;;;14.77;7.30;;;;;;;13.92;29.74;95815.75;5032043;28;20478;-68
2021/04/27 08:21:28;;;;;;;27.43;10.43;;;;;;;13.33;30.95;95815.63;5032125;28;20206;-71
2021/04/27 08:23:54;;;;;;;9.57;6.60;;;;;;;13.19;30.87;95812.19;5032537;28;21934;-69
2021/04/27 08:26:19;;;;;;;11.33;6.80;;;;;;;12.27;32.05;95817.91;5032476;28;20183;-69
2021/04/27 08:28:45;;;;;;;10.00;6.30;;;;;;;12.26;32.35;95824.16;5032028;28;20544;-68
2021/04/27 08:31:11;;;;;;;13.87;7.07;;;;;;;13.23;30.97;95813.41;5032222;28;20203;-68
2021/04/27 08:33:37;;;;;;;14.90;7.80;;;;;;;14.16;29.60;95816.06;5031414;28;20218;-68
2021/04/27 08:36:04;;;;;;;14.60;6.40;;;;;;;13.89;29.64;95816.16;5032085;28;20235;-68
2021/04/27 08:38:31;;;;;;;21.90;8.70;;;;;;;14.18;29.45;95817.47;5032108;28;20442;-69
2021/04/27 08:40:58;;;;;;;11.17;6.77;;;;;;;14.49;28.79;95815.91;5031608;28;20776;-70
2021/04/27 08:43:23;;;;;;;8.63;6.40;;;;;;;14.62;28.84;95798.44;5036378;28;20442;-69
2021/04/27 08:45:49;;;;;;;8.37;5.93;;;;;;;14.66;28.71;95818.06;5035870;28;20422;-69
2021/04/27 08:48:15;;;;;;;9.53;6.43;;;;;;;14.92;28.34;95814.47;5035056;28;20183;-69
2021/04/27 08:50:42;;;;;;;9.73;6.83;;;;;;;15.83;27.28;95803.50;5034719;28;20204;-68
2021/04/27 08:53:09;;;;;;;8.90;6.13;;;;;;;16.08;26.81;95806.13;5050818;28;20184;-67
2021/04/27 08:55:35;;;;;;;11.23;6.47;;;;;;;15.18;27.50;95807.41;5046812;28;20418;-68
2021/04/27 08:58:07;;;;;;;10.50;6.50;;;;;;;15.57;27.39;95809.88;5036320;28;20915;-68
2021/04/27 09:00:33;;;;;;;11.27;5.80;;;;;;;16.07;31.47;95799.22;5038036;28;20257;-66
2021/04/27 09:03:01;;;;;;;9.83;4.97;;;;;;;16.96;30.26;95795.22;5033089;28;20415;-67
2021/04/27 09:05:29;;;;;;;11.70;7.30;;;;;;;17.14;25.87;95785.56;5038125;28;20454;-65
2021/04/27 09:07:56;;;;;;;7.50;4.90;;;;;;;17.45;27.41;95789.72;5034173;28;20410;-67
2021/04/27 09:10:23;;;;;;;11.37;5.77;;;;;;;18.17;26.83;95789.66;5033884;28;20458;-67
2021/04/27 09:13:04;;;;;;;8.57;6.43;;;;;;;18.13;27.54;95781.38;5034318;28;20458;-67
2021/04/27 09:15:35;;;;;;;8.80;5.53;;;;;;;17.49;27.62;95787.44;5034194;28;20490;-67
2021/04/27 09:18:30;;;;;;;10.20;5.43;;;;;;;18.23;27.18;95781.56;5026506;28;20415;-69
2021/04/27 09:21:05;;;;;;;15.00;7.53;;;;;;;18.49;24.70;95782.06;5035467;28;20413;-67
2021/04/27 09:23:33;;;;;;;9.33;6.67;;;;;;;17.84;24.94;95783.94;5030019;28;20438;-67
2021/04/27 09:26:13;;;;;;;10.90;7.33;;;;;;;18.11;26.94;95786.09;5034164;28;20913;-69
2021/04/27 09:28:46;;;;;;;7.17;6.37;;;;;;;18.14;24.52;95782.19;5033802;28;20438;-67
2021/04/27 09:31:31;;;;;;;9.40;6.73;;;;;;;15.67;28.34;95789.06;5032952;28;20460;-67
2021/04/27 09:34:28;;;;;;;11.03;7.20;;;;;;;15.18;27.83;95779.16;5034971;28;20430;-68
2021/04/27 09:36:57;;;;;;;8.20;5.63;;;;;;;15.29;30.68;95782.13;5052038;28;20510;-68
2021/04/27 09:39:51;;;;;;;13.77;7.40;;;;;;;16.61;27.37;95774.75;5036383;28;20474;-67
2021/04/27 09:42:20;;;;;;;9.20;6.20;;;;;;;16.83;30.80;95775.00;4958896;28;20448;-68
2021/04/27 09:44:51;;;;;;;11.17;7.40;;;;;;;16.68;26.57;95772.81;4975001;28;20944;-70
2021/04/27 09:47:29;;;;;;;12.93;8.60;;;;;;;17.35;25.84;95758.53;4974376;28;20444;-68
2021/04/27 09:50:05;;;;;;;5.83;5.00;;;;;;;18.32;25.30;95765.28;4972185;28;20560;-69
2021/04/27 09:52:32;;;;;;;11.90;7.50;;;;;;;18.36;25.40;95764.56;4972419;28;20496;-67
2021/04/27 09:55:02;;;;;;;10.70;5.20;;;;;;;19.14;26.70;95763.25;4974084;28;20791;-68
2021/04/27 09:57:32;;;;;;;9.53;7.00;;;;;;;18.90;24.97;95758.06;4973564;28;20505;-68
2021/04/27 10:00:24;;;;;;;18.53;7.33;;;;;;;18.93;23.17;95754.13;4974315;28;20496;-69
2021/04/27 10:02:51;;;;;;;9.70;7.60;;;;;;;17.94;24.66;95757.66;4974667;28;20421;-68
2021/04/27 10:05:16;;;;;;;12.07;8.23;;;;;;;17.81;25.32;95752.59;4981379;28;20435;-69
2021/04/27 10:07:42;;;;;;;9.97;7.33;;;;;;;16.60;26.51;95754.63;4984455;28;20500;-69
2021/04/27 10:10:13;;;;;;;9.63;7.10;;;;;;;17.38;25.63;95746.69;4978340;28;20689;-67
2021/04/27 10:12:39;;;;;;;12.67;8.43;;;;;;;17.17;25.91;95740.13;4974836;28;20441;-67
2021/04/27 10:15:06;;;;;;;11.90;7.90;;;;;;;17.46;25.88;95743.66;4978626;28;20448;-68
2021/04/27 10:17:33;;;;;;;14.10;8.40;;;;;;;16.20;26.86;95747.22;4980891;28;20189;-69
2021/04/27 10:19:59;;;;;;;14.17;7.53;;;;;;;17.00;26.36;95742.63;5040809;28;20434;-69
2021/04/27 10:22:28;;;;;;;21.60;8.93;;;;;;;17.04;26.35;95738.50;5040136;28;20462;-69
2021/04/27 10:24:55;;;;;;;10.73;7.77;;;;;;;17.58;25.67;95733.06;5040405;28;20473;-69
2021/04/27 10:27:26;;;;;;;10.60;8.30;;;;;;;16.26;27.17;95733.94;5036467;28;20423;-69
2021/04/27 10:30:14;;;;;;;13.43;7.80;;;;;;;16.49;26.91;95736.88;5047407;28;20495;-68
2021/04/27 10:32:40;;;;;;;10.57;8.10;;;;;;;15.89;28.50;95727.88;5009169;28;20451;-70
2021/04/27 10:35:07;;;;;;;16.87;8.30;;;;;;;17.18;26.71;95723.19;5032225;28;20428;-69
2021/04/27 10:38:01;;;;;;;10.63;7.90;;;;;;;17.43;26.32;95728.25;5033612;28;20646;-69
2021/04/27 10:40:53;;;;;;;12.07;9.37;;;;;;;17.23;26.62;95719.84;5028938;28;20430;-69
2021/04/27 10:43:28;;;;;;;13.10;8.00;;;;;;;17.56;25.79;95719.25;5028058;28;21005;-68
2021/04/27 10:45:58;;;;;;;11.07;8.40;;;;;;;16.57;26.67;95715.41;5033125;28;20422;-70
2021/04/27 10:48:24;;;;;;;13.30;8.50;;;;;;;16.66;26.87;95707.94;5045269;28;20431;-69
2021/04/27 10:50:50;;;;;;;11.40;7.93;;;;;;;16.78;26.77;95708.78;5039811;28;20514;-71
2021/04/27 10:53:36;;;;;;;14.30;9.67;;;;;;;17.33;25.89;95698.91;5033178;28;20430;-71
2021/04/27 10:56:04;;;;;;;14.87;9.10;;;;;;;17.39;26.01;95699.84;5024043;28;20593;-69
2021/04/27 10:58:42;;;;;;;17.50;8.73;;;;;;;17.58;25.29;95701.28;5032290;28;20426;-70
2021/04/27 11:01:18;;;;;;;13.00;8.87;;;;;;;18.12;25.08;95692.28;5025621;28;20418;-71
2021/04/27 11:03:52;;;;;;;15.13;9.33;;;;;;;18.34;25.07;95691.59;5037747;28;20453;-70
2021/04/27 11:06:18;;;;;;;14.37;8.77;;;;;;;18.90;24.47;95685.63;5033499;28;20425;-69
2021/04/27 11:08:57;;;;;;;12.20;8.90;;;;;;;18.61;24.21;95681.19;5032643;28;20455;-70
2021/04/27 11:11:33;;;;;;;16.50;8.53;;;;;;;17.94;24.87;95688.75;5034201;28;20802;-70
2021/04/27 11:14:21;;;;;;;10.97;8.00;;;;;;;18.61;24.46;95685.69;5034695;28;20505;-69
2021/04/27 11:16:54;;;;;;;14.57;8.80;;;;;;;17.40;25.75;95674.94;5032974;28;20434;-70
2021/04/27 11:19:23;;;;;;;12.57;9.00;;;;;;;18.38;25.10;95676.84;5032650;28;20443;-69
2021/04/27 11:21:54;;;;;;;10.73;8.23;;;;;;;19.26;23.50;95670.22;5027309;28;20528;-69
2021/04/27 11:24:32;;;;;;;12.57;9.37;;;;;;;19.41;22.79;95673.06;5032864;28;20916;-70
2021/04/27 11:26:59;;;;;;;12.37;8.73;;;;;;;19.93;22.14;95661.25;5032347;28;20556;-70
2021/04/27 11:29:27;;;;;;;11.70;8.23;;;;;;;19.59;23.19;95657.88;5028780;28;20438;-70
2021/04/27 11:31:56;;;;;;;14.53;9.00;;;;;;;19.47;22.64;95666.78;5034547;28;20541;-70
2021/04/27 11:34:23;;;;;;;11.90;8.87;;;;;;;19.68;22.64;95666.25;5032791;28;20418;-69
2021/04/27 11:36:48;;;;;;;21.20;9.03;;;;;;;19.97;22.33;95669.50;5032760;28;20935;-68
2021/04/27 11:39:17;;;;;;;11.97;9.37;;;;;;;20.24;22.00;95658.09;5033685;28;20523;-73